sensor_id;sensor_type;location;lat;lon;timestamp;temperature;humidity
10083;DHT22;5080;48.528;8.078;2022-09-25T00:00:50;14.90;99.90
10083;DHT22;5080;48.528;8.078;2022-09-25T00:03:20;14.90;99.90
10083;DHT22;5080;48.528;8.078;2022-09-25T00:05:47;14.90;99.90
10083;DHT22;5080;48.528;8.078;2022-09-25T00:08:15;14.90;99.90
10083;DHT22;5080;48.528;8.078;2022-09-25T00:10:43;15.00;99.90
10083;DHT22;5080;48.528;8.078;2022-09-25T00:13:10;15.00;99.90
10083;DHT22;5080;48.528;8.078;2022-09-25T00:15:37;15.00;99.90
10083;DHT22;5080;48.528;8.078;2022-09-25T00:18:10;15.00;99.90
10083;DHT22;5080;48.528;8.078;2022-09-25T00:20:38;15.10;99.90
10083;DHT22;5080;48.528;8.078;2022-09-25T00:23:04;15.10;99.90
10083;DHT22;5080;48.528;8.078;2022-09-25T00:25:31;15.00;99.90
10083;DHT22;5080;48.528;8.078;2022-09-25T00:27:58;15.10;99.90
10083;DHT22;5080;48.528;8.078;2022-09-25T00:30:25;15.00;99.90
10083;DHT22;5080;48.528;8.078;2022-09-25T00:32:51;15.00;99.90
10083;DHT22;5080;48.528;8.078;2022-09-25T00:35:18;14.90;99.90
10083;DHT22;5080;48.528;8.078;2022-09-25T00:37:46;14.90;99.90
10083;DHT22;5080;48.528;8.078;2022-09-25T00:40:13;14.90;99.90
10083;DHT22;5080;48.528;8.078;2022-09-25T00:42:40;14.90;99.90
10083;DHT22;5080;48.528;8.078;2022-09-25T00:45:14;14.90;99.90
10083;DHT22;5080;48.528;8.078;2022-09-25T00:47:52;14.80;99.90
10083;DHT22;5080;48.528;8.078;2022-09-25T00:50:28;14.80;99.90
10083;DHT22;5080;48.528;8.078;2022-09-25T00:53:02;14.80;99.90
10083;DHT22;5080;48.528;8.078;2022-09-25T00:55:32;14.80;99.90
10083;DHT22;5080;48.528;8.078;2022-09-25T00:58:00;14.90;99.90
10083;DHT22;5080;48.528;8.078;2022-09-25T01:00:29;14.80;99.90
10083;DHT22;5080;48.528;8.078;2022-09-25T01:02:57;14.80;99.90
10083;DHT22;5080;48.528;8.078;2022-09-25T01:05:28;14.80;99.90
10083;DHT22;5080;48.528;8.078;2022-09-25T01:07:58;14.90;99.90
10083;DHT22;5080;48.528;8.078;2022-09-25T01:10:27;14.90;99.90
10083;DHT22;5080;48.528;8.078;2022-09-25T01:12:59;14.90;99.90
10083;DHT22;5080;48.528;8.078;2022-09-25T01:15:30;14.90;99.90
10083;DHT22;5080;48.528;8.078;2022-09-25T01:18:08;14.90;99.90
10083;DHT22;5080;48.528;8.078;2022-09-25T01:21:00;14.80;99.90
10083;DHT22;5080;48.528;8.078;2022-09-25T01:23:48;14.80;99.90
10083;DHT22;5080;48.528;8.078;2022-09-25T01:29:15;14.90;99.90
10083;DHT22;5080;48.528;8.078;2022-09-25T01:31:46;14.80;99.90
10083;DHT22;5080;48.528;8.078;2022-09-25T01:34:19;14.80;99.90
10083;DHT22;5080;48.528;8.078;2022-09-25T01:36:52;14.80;99.90
10083;DHT22;5080;48.528;8.078;2022-09-25T01:39:27;14.80;99.90
10083;DHT22;5080;48.528;8.078;2022-09-25T01:41:59;14.70;99.90
10083;DHT22;5080;48.528;8.078;2022-09-25T01:44:29;14.70;99.90
10083;DHT22;5080;48.528;8.078;2022-09-25T01:47:02;14.60;99.90
10083;DHT22;5080;48.528;8.078;2022-09-25T01:49:32;14.70;99.90
10083;DHT22;5080;48.528;8.078;2022-09-25T01:52:02;14.70;99.90
10083;DHT22;5080;48.528;8.078;2022-09-25T01:54:33;14.70;99.90
10083;DHT22;5080;48.528;8.078;2022-09-25T01:57:06;14.60;99.90
10083;DHT22;5080;48.528;8.078;2022-09-25T01:59:38;14.50;99.90
10083;DHT22;5080;48.528;8.078;2022-09-25T02:02:10;14.50;99.90
10083;DHT22;5080;48.528;8.078;2022-09-25T02:04:41;14.60;99.90
10083;DHT22;5080;48.528;8.078;2022-09-25T02:07:12;14.60;99.90
10083;DHT22;5080;48.528;8.078;2022-09-25T02:09:44;14.60;99.90
10083;DHT22;5080;48.528;8.078;2022-09-25T02:12:14;14.50;99.90
10083;DHT22;5080;48.528;8.078;2022-09-25T02:14:46;14.60;99.90
10083;DHT22;5080;48.528;8.078;2022-09-25T02:17:19;14.60;99.90
10083;DHT22;5080;48.528;8.078;2022-09-25T02:20:08;14.60;99.90
10083;DHT22;5080;48.528;8.078;2022-09-25T02:22:53;14.60;99.90
10083;DHT22;5080;48.528;8.078;2022-09-25T02:25:26;14.50;99.90
10083;DHT22;5080;48.528;8.078;2022-09-25T02:27:57;14.50;99.90
10083;DHT22;5080;48.528;8.078;2022-09-25T02:30:26;14.50;99.90
10083;DHT22;5080;48.528;8.078;2022-09-25T02:32:53;14.50;99.90
10083;DHT22;5080;48.528;8.078;2022-09-25T02:35:22;14.40;99.90
10083;DHT22;5080;48.528;8.078;2022-09-25T02:37:49;14.40;99.90
10083;DHT22;5080;48.528;8.078;2022-09-25T02:40:17;14.40;99.90
10083;DHT22;5080;48.528;8.078;2022-09-25T02:42:49;14.30;99.90
10083;DHT22;5080;48.528;8.078;2022-09-25T02:45:28;14.30;99.90
10083;DHT22;5080;48.528;8.078;2022-09-25T02:48:06;14.30;99.90
10083;DHT22;5080;48.528;8.078;2022-09-25T02:50:41;14.30;99.90
10083;DHT22;5080;48.528;8.078;2022-09-25T02:53:15;14.30;99.90
10083;DHT22;5080;48.528;8.078;2022-09-25T02:55:48;14.30;99.90
10083;DHT22;5080;48.528;8.078;2022-09-25T02:58:20;14.30;99.90
10083;DHT22;5080;48.528;8.078;2022-09-25T03:00:52;14.30;99.90
10083;DHT22;5080;48.528;8.078;2022-09-25T03:03:22;14.40;99.90
10083;DHT22;5080;48.528;8.078;2022-09-25T03:05:54;14.40;99.90
10083;DHT22;5080;48.528;8.078;2022-09-25T03:08:22;14.40;99.90
10083;DHT22;5080;48.528;8.078;2022-09-25T03:11:07;14.30;99.90
10083;DHT22;5080;48.528;8.078;2022-09-25T03:13:35;14.20;99.90
10083;DHT22;5080;48.528;8.078;2022-09-25T03:16:05;14.20;99.90
10083;DHT22;5080;48.528;8.078;2022-09-25T03:18:33;14.20;99.90
10083;DHT22;5080;48.528;8.078;2022-09-25T03:21:00;14.20;99.90
10083;DHT22;5080;48.528;8.078;2022-09-25T03:23:28;14.20;99.90
10083;DHT22;5080;48.528;8.078;2022-09-25T03:25:56;14.20;99.90
10083;DHT22;5080;48.528;8.078;2022-09-25T03:28:23;14.10;99.90
10083;DHT22;5080;48.528;8.078;2022-09-25T03:30:57;14.00;99.90
10083;DHT22;5080;48.528;8.078;2022-09-25T03:33:27;14.00;99.90
10083;DHT22;5080;48.528;8.078;2022-09-25T03:36:03;14.00;99.90
10083;DHT22;5080;48.528;8.078;2022-09-25T03:38:29;14.00;99.90
10083;DHT22;5080;48.528;8.078;2022-09-25T03:40:56;14.00;99.90
10083;DHT22;5080;48.528;8.078;2022-09-25T03:43:23;14.00;99.90
10083;DHT22;5080;48.528;8.078;2022-09-25T03:45:50;14.00;99.90
10083;DHT22;5080;48.528;8.078;2022-09-25T03:48:17;13.90;99.90
10083;DHT22;5080;48.528;8.078;2022-09-25T03:50:45;14.00;99.90
10083;DHT22;5080;48.528;8.078;2022-09-25T03:53:14;13.90;99.90
10083;DHT22;5080;48.528;8.078;2022-09-25T03:55:42;13.80;99.90
10083;DHT22;5080;48.528;8.078;2022-09-25T03:58:11;13.90;99.90
10083;DHT22;5080;48.528;8.078;2022-09-25T04:00:39;13.90;99.90
10083;DHT22;5080;48.528;8.078;2022-09-25T04:03:06;14.00;99.90
10083;DHT22;5080;48.528;8.078;2022-09-25T04:05:32;14.00;99.90
10083;DHT22;5080;48.528;8.078;2022-09-25T04:08:02;13.90;99.90
10083;DHT22;5080;48.528;8.078;2022-09-25T04:10:29;13.90;99.90
10083;DHT22;5080;48.528;8.078;2022-09-25T04:12:56;13.80;99.90
10083;DHT22;5080;48.528;8.078;2022-09-25T04:15:23;13.80;99.90
10083;DHT22;5080;48.528;8.078;2022-09-25T04:17:50;13.80;99.90
10083;DHT22;5080;48.528;8.078;2022-09-25T04:20:17;13.70;99.90
10083;DHT22;5080;48.528;8.078;2022-09-25T04:22:44;13.70;99.90
10083;DHT22;5080;48.528;8.078;2022-09-25T04:25:13;13.60;99.90
10083;DHT22;5080;48.528;8.078;2022-09-25T04:27:39;13.50;99.90
10083;DHT22;5080;48.528;8.078;2022-09-25T04:30:10;13.50;99.90
10083;DHT22;5080;48.528;8.078;2022-09-25T04:32:37;13.50;99.90
10083;DHT22;5080;48.528;8.078;2022-09-25T04:35:21;13.50;99.90
10083;DHT22;5080;48.528;8.078;2022-09-25T04:37:48;13.50;99.90
10083;DHT22;5080;48.528;8.078;2022-09-25T04:40:16;13.60;99.90
10083;DHT22;5080;48.528;8.078;2022-09-25T04:42:43;13.60;99.90
10083;DHT22;5080;48.528;8.078;2022-09-25T04:45:10;13.60;99.90
10083;DHT22;5080;48.528;8.078;2022-09-25T04:47:37;13.60;99.90
10083;DHT22;5080;48.528;8.078;2022-09-25T04:50:04;13.60;99.90
10083;DHT22;5080;48.528;8.078;2022-09-25T04:52:31;13.50;99.90
10083;DHT22;5080;48.528;8.078;2022-09-25T04:54:58;13.50;99.90
10083;DHT22;5080;48.528;8.078;2022-09-25T04:57:27;13.50;99.90
10083;DHT22;5080;48.528;8.078;2022-09-25T04:59:53;13.60;99.90
10083;DHT22;5080;48.528;8.078;2022-09-25T05:02:25;13.60;99.90
10083;DHT22;5080;48.528;8.078;2022-09-25T05:04:53;13.70;99.90
10083;DHT22;5080;48.528;8.078;2022-09-25T05:07:20;13.70;99.90
10083;DHT22;5080;48.528;8.078;2022-09-25T05:09:47;13.70;99.90
10083;DHT22;5080;48.528;8.078;2022-09-25T05:12:14;13.70;99.90
10083;DHT22;5080;48.528;8.078;2022-09-25T05:14:42;13.70;99.90
10083;DHT22;5080;48.528;8.078;2022-09-25T05:17:09;13.80;99.90
10083;DHT22;5080;48.528;8.078;2022-09-25T05:19:36;13.80;99.90
10083;DHT22;5080;48.528;8.078;2022-09-25T05:22:03;13.80;99.90
10083;DHT22;5080;48.528;8.078;2022-09-25T05:24:30;13.90;99.90
10083;DHT22;5080;48.528;8.078;2022-09-25T05:26:57;13.80;99.90
10083;DHT22;5080;48.528;8.078;2022-09-25T05:29:24;13.80;99.90
10083;DHT22;5080;48.528;8.078;2022-09-25T05:31:52;13.90;99.90
10083;DHT22;5080;48.528;8.078;2022-09-25T05:34:20;13.90;99.90
10083;DHT22;5080;48.528;8.078;2022-09-25T05:36:47;13.90;99.90
10083;DHT22;5080;48.528;8.078;2022-09-25T05:39:14;13.90;99.90
10083;DHT22;5080;48.528;8.078;2022-09-25T05:41:41;14.00;99.90
10083;DHT22;5080;48.528;8.078;2022-09-25T05:44:08;13.90;99.90
10083;DHT22;5080;48.528;8.078;2022-09-25T05:46:35;14.00;99.90
10083;DHT22;5080;48.528;8.078;2022-09-25T05:49:04;14.00;99.90
10083;DHT22;5080;48.528;8.078;2022-09-25T05:51:31;13.90;99.90
10083;DHT22;5080;48.528;8.078;2022-09-25T05:53:58;14.00;99.90
10083;DHT22;5080;48.528;8.078;2022-09-25T05:56:25;14.00;99.90
10083;DHT22;5080;48.528;8.078;2022-09-25T05:58:52;14.00;99.90
10083;DHT22;5080;48.528;8.078;2022-09-25T06:01:20;14.00;99.90
10083;DHT22;5080;48.528;8.078;2022-09-25T06:03:47;14.10;99.90
10083;DHT22;5080;48.528;8.078;2022-09-25T06:06:15;14.20;99.90
10083;DHT22;5080;48.528;8.078;2022-09-25T06:08:42;14.20;99.90
10083;DHT22;5080;48.528;8.078;2022-09-25T06:11:08;14.10;99.90
10083;DHT22;5080;48.528;8.078;2022-09-25T06:13:35;14.10;99.90
10083;DHT22;5080;48.528;8.078;2022-09-25T06:16:03;14.10;99.90
10083;DHT22;5080;48.528;8.078;2022-09-25T06:18:31;14.20;99.90
10083;DHT22;5080;48.528;8.078;2022-09-25T06:20:59;14.30;99.90
10083;DHT22;5080;48.528;8.078;2022-09-25T06:23:28;14.40;99.90
10083;DHT22;5080;48.528;8.078;2022-09-25T06:25:59;14.50;99.90
10083;DHT22;5080;48.528;8.078;2022-09-25T06:28:26;14.50;99.90
10083;DHT22;5080;48.528;8.078;2022-09-25T06:30:53;14.50;99.90
10083;DHT22;5080;48.528;8.078;2022-09-25T06:33:20;14.50;99.90
10083;DHT22;5080;48.528;8.078;2022-09-25T06:35:47;14.50;99.90
10083;DHT22;5080;48.528;8.078;2022-09-25T06:38:15;14.60;99.90
10083;DHT22;5080;48.528;8.078;2022-09-25T06:40:43;14.60;99.90
10083;DHT22;5080;48.528;8.078;2022-09-25T06:43:11;14.50;99.90
10083;DHT22;5080;48.528;8.078;2022-09-25T06:45:39;14.50;99.90
10083;DHT22;5080;48.528;8.078;2022-09-25T06:48:08;14.50;99.90
10083;DHT22;5080;48.528;8.078;2022-09-25T06:50:39;14.60;99.90
10083;DHT22;5080;48.528;8.078;2022-09-25T06:53:07;14.60;99.90
10083;DHT22;5080;48.528;8.078;2022-09-25T06:55:34;14.60;99.90
10083;DHT22;5080;48.528;8.078;2022-09-25T06:58:04;14.50;99.90
10083;DHT22;5080;48.528;8.078;2022-09-25T07:00:31;14.50;99.90
10083;DHT22;5080;48.528;8.078;2022-09-25T07:02:59;14.50;99.90
10083;DHT22;5080;48.528;8.078;2022-09-25T07:05:44;14.50;99.90
10083;DHT22;5080;48.528;8.078;2022-09-25T07:08:13;14.50;99.90
10083;DHT22;5080;48.528;8.078;2022-09-25T07:10:46;14.50;99.90
10083;DHT22;5080;48.528;8.078;2022-09-25T07:13:14;14.50;99.90
10083;DHT22;5080;48.528;8.078;2022-09-25T07:15:42;14.50;99.90
10083;DHT22;5080;48.528;8.078;2022-09-25T07:18:09;14.50;99.90
10083;DHT22;5080;48.528;8.078;2022-09-25T07:20:36;14.50;99.90
10083;DHT22;5080;48.528;8.078;2022-09-25T07:23:03;14.50;99.90
10083;DHT22;5080;48.528;8.078;2022-09-25T07:25:30;14.50;99.90
10083;DHT22;5080;48.528;8.078;2022-09-25T07:27:57;14.60;99.90
10083;DHT22;5080;48.528;8.078;2022-09-25T07:30:27;14.70;99.90
10083;DHT22;5080;48.528;8.078;2022-09-25T07:32:54;14.90;99.90
10083;DHT22;5080;48.528;8.078;2022-09-25T07:35:22;14.80;99.90
10083;DHT22;5080;48.528;8.078;2022-09-25T07:37:49;14.80;99.90
10083;DHT22;5080;48.528;8.078;2022-09-25T07:40:16;14.90;99.90
10083;DHT22;5080;48.528;8.078;2022-09-25T07:42:43;14.90;99.90
10083;DHT22;5080;48.528;8.078;2022-09-25T07:45:10;14.90;99.90
10083;DHT22;5080;48.528;8.078;2022-09-25T07:47:38;15.00;99.90
10083;DHT22;5080;48.528;8.078;2022-09-25T07:50:06;15.00;99.90
10083;DHT22;5080;48.528;8.078;2022-09-25T07:52:33;15.00;99.90
10083;DHT22;5080;48.528;8.078;2022-09-25T07:55:00;15.00;99.90
10083;DHT22;5080;48.528;8.078;2022-09-25T07:57:26;14.90;99.90
10083;DHT22;5080;48.528;8.078;2022-09-25T07:59:54;15.00;99.90
10083;DHT22;5080;48.528;8.078;2022-09-25T08:02:21;15.00;99.90
10083;DHT22;5080;48.528;8.078;2022-09-25T08:04:49;15.00;99.90
10083;DHT22;5080;48.528;8.078;2022-09-25T08:07:16;15.00;99.90
10083;DHT22;5080;48.528;8.078;2022-09-25T08:09:43;15.00;99.90
10083;DHT22;5080;48.528;8.078;2022-09-25T08:12:10;15.00;99.90
10083;DHT22;5080;48.528;8.078;2022-09-25T08:14:38;15.00;99.90
10083;DHT22;5080;48.528;8.078;2022-09-25T08:17:06;15.00;99.90
10083;DHT22;5080;48.528;8.078;2022-09-25T08:19:33;15.00;99.90
10083;DHT22;5080;48.528;8.078;2022-09-25T08:22:01;15.00;99.90
10083;DHT22;5080;48.528;8.078;2022-09-25T08:24:28;15.00;99.90
10083;DHT22;5080;48.528;8.078;2022-09-25T08:26:54;15.00;99.90
10083;DHT22;5080;48.528;8.078;2022-09-25T08:29:21;15.10;99.90
10083;DHT22;5080;48.528;8.078;2022-09-25T08:31:49;15.20;99.90
10083;DHT22;5080;48.528;8.078;2022-09-25T08:34:16;15.20;99.90
10083;DHT22;5080;48.528;8.078;2022-09-25T08:36:43;15.10;99.90
10083;DHT22;5080;48.528;8.078;2022-09-25T08:39:11;15.10;99.90
10083;DHT22;5080;48.528;8.078;2022-09-25T08:41:45;15.20;99.90
10083;DHT22;5080;48.528;8.078;2022-09-25T08:44:21;15.20;99.90
10083;DHT22;5080;48.528;8.078;2022-09-25T08:46:53;15.20;99.90
10083;DHT22;5080;48.528;8.078;2022-09-25T08:49:41;15.30;99.90
10083;DHT22;5080;48.528;8.078;2022-09-25T08:52:14;15.30;99.90
10083;DHT22;5080;48.528;8.078;2022-09-25T08:54:43;15.40;99.90
10083;DHT22;5080;48.528;8.078;2022-09-25T08:57:16;15.20;99.90
10083;DHT22;5080;48.528;8.078;2022-09-25T08:59:48;15.30;99.90
10083;DHT22;5080;48.528;8.078;2022-09-25T09:02:19;15.60;99.90
10083;DHT22;5080;48.528;8.078;2022-09-25T09:04:49;15.60;99.90
10083;DHT22;5080;48.528;8.078;2022-09-25T09:07:22;15.40;99.90
10083;DHT22;5080;48.528;8.078;2022-09-25T09:09:55;15.50;99.90
10083;DHT22;5080;48.528;8.078;2022-09-25T09:12:27;15.40;99.90
10083;DHT22;5080;48.528;8.078;2022-09-25T09:15:04;15.50;99.90
10083;DHT22;5080;48.528;8.078;2022-09-25T09:17:40;15.60;99.90
10083;DHT22;5080;48.528;8.078;2022-09-25T09:20:15;15.70;99.90
10083;DHT22;5080;48.528;8.078;2022-09-25T09:22:46;16.00;99.90
10083;DHT22;5080;48.528;8.078;2022-09-25T09:25:24;16.30;99.90
10083;DHT22;5080;48.528;8.078;2022-09-25T09:28:08;16.60;99.90
10083;DHT22;5080;48.528;8.078;2022-09-25T09:30:43;16.90;99.90
10083;DHT22;5080;48.528;8.078;2022-09-25T09:33:22;17.20;99.90
10083;DHT22;5080;48.528;8.078;2022-09-25T09:36:09;17.40;99.90
10083;DHT22;5080;48.528;8.078;2022-09-25T09:38:45;17.30;99.90
10083;DHT22;5080;48.528;8.078;2022-09-25T09:41:25;17.10;99.90
10083;DHT22;5080;48.528;8.078;2022-09-25T09:44:16;17.10;99.90
10083;DHT22;5080;48.528;8.078;2022-09-25T09:46:55;17.00;99.90
10083;DHT22;5080;48.528;8.078;2022-09-25T09:49:32;17.00;99.90
10083;DHT22;5080;48.528;8.078;2022-09-25T09:52:03;17.20;99.90
10083;DHT22;5080;48.528;8.078;2022-09-25T09:54:37;17.40;99.90
10083;DHT22;5080;48.528;8.078;2022-09-25T09:57:14;17.50;99.90
10083;DHT22;5080;48.528;8.078;2022-09-25T09:59:46;18.00;99.90
10083;DHT22;5080;48.528;8.078;2022-09-25T10:02:24;18.40;99.90
10083;DHT22;5080;48.528;8.078;2022-09-25T10:04:53;18.50;99.90
10083;DHT22;5080;48.528;8.078;2022-09-25T10:07:21;18.20;99.90
10083;DHT22;5080;48.528;8.078;2022-09-25T10:09:49;17.90;99.90
10083;DHT22;5080;48.528;8.078;2022-09-25T10:12:25;17.60;99.90
10083;DHT22;5080;48.528;8.078;2022-09-25T10:14:54;17.40;99.90
10083;DHT22;5080;48.528;8.078;2022-09-25T10:17:23;17.10;99.90
10083;DHT22;5080;48.528;8.078;2022-09-25T10:19:53;17.00;99.90
10083;DHT22;5080;48.528;8.078;2022-09-25T10:22:22;16.80;99.90
10083;DHT22;5080;48.528;8.078;2022-09-25T10:24:53;16.60;99.90
10083;DHT22;5080;48.528;8.078;2022-09-25T10:27:29;16.60;99.90
10083;DHT22;5080;48.528;8.078;2022-09-25T10:30:08;16.60;99.90
10083;DHT22;5080;48.528;8.078;2022-09-25T10:32:41;16.40;99.90
10083;DHT22;5080;48.528;8.078;2022-09-25T10:35:14;16.50;99.90
10083;DHT22;5080;48.528;8.078;2022-09-25T10:37:41;16.40;99.90
10083;DHT22;5080;48.528;8.078;2022-09-25T10:40:22;16.30;99.90
10083;DHT22;5080;48.528;8.078;2022-09-25T10:43:01;16.30;99.90
10083;DHT22;5080;48.528;8.078;2022-09-25T10:45:30;16.30;99.90
10083;DHT22;5080;48.528;8.078;2022-09-25T10:47:57;16.20;99.90
10083;DHT22;5080;48.528;8.078;2022-09-25T10:50:42;16.20;99.90
10083;DHT22;5080;48.528;8.078;2022-09-25T10:53:26;16.10;99.90
10083;DHT22;5080;48.528;8.078;2022-09-25T10:55:59;16.10;99.90
10083;DHT22;5080;48.528;8.078;2022-09-25T10:58:34;16.10;99.90
10083;DHT22;5080;48.528;8.078;2022-09-25T11:01:02;16.10;99.90
10083;DHT22;5080;48.528;8.078;2022-09-25T11:03:31;16.00;99.90
10083;DHT22;5080;48.528;8.078;2022-09-25T11:06:02;16.00;99.90
10083;DHT22;5080;48.528;8.078;2022-09-25T11:08:33;15.90;99.90
10083;DHT22;5080;48.528;8.078;2022-09-25T11:11:02;15.90;99.90
10083;DHT22;5080;48.528;8.078;2022-09-25T11:13:37;15.90;99.90
10083;DHT22;5080;48.528;8.078;2022-09-25T11:16:07;15.90;99.90
10083;DHT22;5080;48.528;8.078;2022-09-25T11:18:38;16.00;99.90
10083;DHT22;5080;48.528;8.078;2022-09-25T11:21:16;16.10;99.90
10083;DHT22;5080;48.528;8.078;2022-09-25T11:23:55;16.00;99.90
10083;DHT22;5080;48.528;8.078;2022-09-25T11:26:28;16.00;99.90
10083;DHT22;5080;48.528;8.078;2022-09-25T11:29:02;15.80;99.90
10083;DHT22;5080;48.528;8.078;2022-09-25T11:31:34;15.70;99.90
10083;DHT22;5080;48.528;8.078;2022-09-25T11:34:11;15.60;99.90
10083;DHT22;5080;48.528;8.078;2022-09-25T11:36:44;15.50;99.90
10083;DHT22;5080;48.528;8.078;2022-09-25T11:39:17;15.50;99.90
10083;DHT22;5080;48.528;8.078;2022-09-25T11:42:07;15.50;99.90
10083;DHT22;5080;48.528;8.078;2022-09-25T11:44:41;15.60;99.90
10083;DHT22;5080;48.528;8.078;2022-09-25T11:47:14;15.50;99.90
10083;DHT22;5080;48.528;8.078;2022-09-25T11:49:47;15.60;99.90
10083;DHT22;5080;48.528;8.078;2022-09-25T11:52:23;15.50;99.90
10083;DHT22;5080;48.528;8.078;2022-09-25T11:57:54;15.60;99.90
10083;DHT22;5080;48.528;8.078;2022-09-25T12:00:26;15.50;99.90
10083;DHT22;5080;48.528;8.078;2022-09-25T12:03:11;15.60;99.90
10083;DHT22;5080;48.528;8.078;2022-09-25T12:05:56;15.60;99.90
10083;DHT22;5080;48.528;8.078;2022-09-25T12:08:38;15.70;99.90
10083;DHT22;5080;48.528;8.078;2022-09-25T12:11:21;15.70;99.90
10083;DHT22;5080;48.528;8.078;2022-09-25T12:13:53;15.80;99.90
10083;DHT22;5080;48.528;8.078;2022-09-25T12:16:29;15.90;99.90
10083;DHT22;5080;48.528;8.078;2022-09-25T12:19:14;16.00;99.90
10083;DHT22;5080;48.528;8.078;2022-09-25T12:21:51;16.10;99.90
10083;DHT22;5080;48.528;8.078;2022-09-25T12:24:29;16.30;99.90
10083;DHT22;5080;48.528;8.078;2022-09-25T12:27:04;16.20;99.90
10083;DHT22;5080;48.528;8.078;2022-09-25T12:29:45;16.30;99.90
10083;DHT22;5080;48.528;8.078;2022-09-25T12:32:25;16.40;99.90
10083;DHT22;5080;48.528;8.078;2022-09-25T12:35:02;16.50;99.90
10083;DHT22;5080;48.528;8.078;2022-09-25T12:37:39;16.50;99.90
10083;DHT22;5080;48.528;8.078;2022-09-25T12:40:15;16.60;99.90
10083;DHT22;5080;48.528;8.078;2022-09-25T12:42:49;16.80;99.90
10083;DHT22;5080;48.528;8.078;2022-09-25T12:45:22;16.90;99.90
10083;DHT22;5080;48.528;8.078;2022-09-25T12:48:01;16.90;99.90
10083;DHT22;5080;48.528;8.078;2022-09-25T12:50:33;17.00;99.90
10083;DHT22;5080;48.528;8.078;2022-09-25T12:53:10;17.10;99.90
10083;DHT22;5080;48.528;8.078;2022-09-25T12:55:42;17.20;99.90
10083;DHT22;5080;48.528;8.078;2022-09-25T12:58:15;17.20;99.90
10083;DHT22;5080;48.528;8.078;2022-09-25T13:00:47;17.30;99.90
10083;DHT22;5080;48.528;8.078;2022-09-25T13:03:22;17.30;99.90
10083;DHT22;5080;48.528;8.078;2022-09-25T13:05:58;17.40;99.90
10083;DHT22;5080;48.528;8.078;2022-09-25T13:08:32;17.40;99.90
10083;DHT22;5080;48.528;8.078;2022-09-25T13:11:07;17.30;99.90
10083;DHT22;5080;48.528;8.078;2022-09-25T13:13:39;17.30;99.90
10083;DHT22;5080;48.528;8.078;2022-09-25T13:16:10;17.30;99.90
10083;DHT22;5080;48.528;8.078;2022-09-25T13:18:46;17.40;99.90
10083;DHT22;5080;48.528;8.078;2022-09-25T13:21:24;17.30;99.90
10083;DHT22;5080;48.528;8.078;2022-09-25T13:23:55;17.30;99.90
10083;DHT22;5080;48.528;8.078;2022-09-25T13:26:25;17.30;99.90
10083;DHT22;5080;48.528;8.078;2022-09-25T13:28:55;17.30;99.90
10083;DHT22;5080;48.528;8.078;2022-09-25T13:31:25;17.30;99.90
10083;DHT22;5080;48.528;8.078;2022-09-25T13:33:56;17.30;99.90
10083;DHT22;5080;48.528;8.078;2022-09-25T13:36:36;17.30;99.90
10083;DHT22;5080;48.528;8.078;2022-09-25T13:39:13;17.30;99.90
10083;DHT22;5080;48.528;8.078;2022-09-25T13:42:01;17.30;99.90
10083;DHT22;5080;48.528;8.078;2022-09-25T13:44:46;17.50;99.90
10083;DHT22;5080;48.528;8.078;2022-09-25T13:47:47;17.80;99.90
10083;DHT22;5080;48.528;8.078;2022-09-25T13:50:27;18.00;99.90
10083;DHT22;5080;48.528;8.078;2022-09-25T13:56:05;18.30;99.90
10083;DHT22;5080;48.528;8.078;2022-09-25T13:58:59;18.30;99.90
10083;DHT22;5080;48.528;8.078;2022-09-25T14:01:34;18.30;99.90
10083;DHT22;5080;48.528;8.078;2022-09-25T14:04:08;18.30;99.90
10083;DHT22;5080;48.528;8.078;2022-09-25T14:06:37;18.30;99.90
10083;DHT22;5080;48.528;8.078;2022-09-25T14:09:09;18.20;99.90
10083;DHT22;5080;48.528;8.078;2022-09-25T14:11:36;18.10;99.90
10083;DHT22;5080;48.528;8.078;2022-09-25T14:14:07;18.10;99.90
10083;DHT22;5080;48.528;8.078;2022-09-25T14:16:41;18.00;99.90
10083;DHT22;5080;48.528;8.078;2022-09-25T14:19:16;17.90;99.90
10083;DHT22;5080;48.528;8.078;2022-09-25T14:21:45;17.90;99.90
10083;DHT22;5080;48.528;8.078;2022-09-25T14:24:18;17.80;99.90
10083;DHT22;5080;48.528;8.078;2022-09-25T14:26:47;17.70;99.90
10083;DHT22;5080;48.528;8.078;2022-09-25T14:29:17;17.70;99.90
10083;DHT22;5080;48.528;8.078;2022-09-25T14:31:52;17.60;99.90
10083;DHT22;5080;48.528;8.078;2022-09-25T14:34:42;17.60;99.90
10083;DHT22;5080;48.528;8.078;2022-09-25T14:37:24;17.50;99.90
10083;DHT22;5080;48.528;8.078;2022-09-25T14:40:02;17.50;99.90
10083;DHT22;5080;48.528;8.078;2022-09-25T14:42:40;17.50;99.90
10083;DHT22;5080;48.528;8.078;2022-09-25T14:48:13;17.50;99.90
10083;DHT22;5080;48.528;8.078;2022-09-25T14:50:46;17.60;99.90
10083;DHT22;5080;48.528;8.078;2022-09-25T14:53:22;17.50;99.90
10083;DHT22;5080;48.528;8.078;2022-09-25T14:55:52;17.50;99.90
10083;DHT22;5080;48.528;8.078;2022-09-25T14:58:22;17.60;99.90
10083;DHT22;5080;48.528;8.078;2022-09-25T15:00:53;17.50;99.90
10083;DHT22;5080;48.528;8.078;2022-09-25T15:03:23;17.40;99.90
10083;DHT22;5080;48.528;8.078;2022-09-25T15:05:51;17.30;99.90
10083;DHT22;5080;48.528;8.078;2022-09-25T15:08:22;17.00;99.90
10083;DHT22;5080;48.528;8.078;2022-09-25T15:11:00;16.70;99.90
10083;DHT22;5080;48.528;8.078;2022-09-25T15:13:27;16.30;99.90
10083;DHT22;5080;48.528;8.078;2022-09-25T15:15:58;16.20;99.90
10083;DHT22;5080;48.528;8.078;2022-09-25T15:18:45;16.10;99.90
10083;DHT22;5080;48.528;8.078;2022-09-25T15:21:20;15.90;99.90
10083;DHT22;5080;48.528;8.078;2022-09-25T15:23:50;15.60;99.90
10083;DHT22;5080;48.528;8.078;2022-09-25T15:26:17;15.50;99.90
10083;DHT22;5080;48.528;8.078;2022-09-25T15:28:45;15.40;99.90
10083;DHT22;5080;48.528;8.078;2022-09-25T15:31:12;15.30;99.90
10083;DHT22;5080;48.528;8.078;2022-09-25T15:33:39;15.20;99.90
10083;DHT22;5080;48.528;8.078;2022-09-25T15:36:15;15.20;99.90
10083;DHT22;5080;48.528;8.078;2022-09-25T15:38:52;15.20;99.90
10083;DHT22;5080;48.528;8.078;2022-09-25T15:41:21;15.30;99.90
10083;DHT22;5080;48.528;8.078;2022-09-25T15:43:48;15.20;99.90
10083;DHT22;5080;48.528;8.078;2022-09-25T15:46:32;15.20;99.90
10083;DHT22;5080;48.528;8.078;2022-09-25T15:49:01;15.20;99.90
10083;DHT22;5080;48.528;8.078;2022-09-25T15:51:31;15.20;99.90
10083;DHT22;5080;48.528;8.078;2022-09-25T15:54:01;15.40;99.90
10083;DHT22;5080;48.528;8.078;2022-09-25T15:56:35;15.50;99.90
10083;DHT22;5080;48.528;8.078;2022-09-25T15:59:16;15.50;99.90
10083;DHT22;5080;48.528;8.078;2022-09-25T16:01:44;15.60;99.90
10083;DHT22;5080;48.528;8.078;2022-09-25T16:04:28;15.60;99.90
10083;DHT22;5080;48.528;8.078;2022-09-25T16:07:23;15.50;99.90
10083;DHT22;5080;48.528;8.078;2022-09-25T16:09:54;15.60;99.90
10083;DHT22;5080;48.528;8.078;2022-09-25T16:12:26;15.70;99.90
10083;DHT22;5080;48.528;8.078;2022-09-25T16:14:55;15.70;99.90
10083;DHT22;5080;48.528;8.078;2022-09-25T16:17:25;15.70;99.90
10083;DHT22;5080;48.528;8.078;2022-09-25T16:20:02;15.70;99.90
10083;DHT22;5080;48.528;8.078;2022-09-25T16:22:35;15.70;99.90
10083;DHT22;5080;48.528;8.078;2022-09-25T16:25:13;15.70;99.90